Huvudsida
METAR-TAF:

METAR-TAF

Flygplatser :

Oslo flygplats. Gardermoen

Oslo, Norge

latitud: 60-12N, longitud: 011-05E, höjd: 208 m

Aktuellt väderrapport

Denna rapport gjordes för 22 minuter sedan, klockan 12:20 UTC
Vind 8 kt från nord/nordost, varierande mellan nord och ost/nordost
Temperatur 12°C
Fuktighet 67%
Tryck 1015 hPa
Sikt 10 km eller mer
lätt regn

METAR: ENGM 251220Z 02008KT 360V060 9999 -RA NSC 12/06 Q1015 NOSIG

Tid: 14:42 (12:42 UTC)

Väderprognos

Prognos gäller från 25 kl. 12 UTC till 26 kl. 12 UTC
Vind 8 kt från nord/nordost
Sikt 10 km eller mer
Få moln på en höjd av 4000 ft
Brutna moln på en höjd av 6000 ft
Temporärt
från 25 kl. 23 UTC till 26 kl. 04 UTC
Få moln på en höjd av 4000 ft, Cumulonimbus.
Brutna moln på en höjd av 6000 ft
regnskurar

TAF: ENGM 2512/2612 02008KT 9999 FEW040 BKN060 TEMPO 2523/2604 SHRA FEW040CB BKN060

Aktuella väderrapporter och prognoser från 4000 flygplatser (METAR- och TAF-rapporter).

De tillgängliga stationerna syns som gula och röda prickar på kartan.

För musen över prickarna för att se namnen på stationerna.

Klicka sedan för att få väderrapporter och prognoser.

För att ändra kartan: Klicka på de gröna knapparna med ett svart kors på för att zooma in; den gröna knappen med ett streck på för att zooma ut; eller på de gröna pilarna för angränsande kartor.


METAR-TAF: